sensor_id;sensor_type;location;lat;lon;timestamp;P1;durP1;ratioP1;P2;durP2;ratioP2
67132;SDS011;54052;53.542;49.408;2022-08-02T00:01:29;2.80;;;0.90;;
67132;SDS011;54052;53.542;49.408;2022-08-02T00:03:55;3.65;;;1.20;;
67132;SDS011;54052;53.542;49.408;2022-08-02T00:06:21;4.93;;;1.77;;
67132;SDS011;54052;53.542;49.408;2022-08-02T00:08:48;9.25;;;0.93;;
67132;SDS011;54052;53.542;49.408;2022-08-02T00:11:15;2.75;;;1.05;;
67132;SDS011;54052;53.542;49.408;2022-08-02T00:13:44;19.85;;;0.90;;
67132;SDS011;54052;53.542;49.408;2022-08-02T00:16:11;2.72;;;1.00;;
67132;SDS011;54052;53.542;49.408;2022-08-02T00:18:37;1.52;;;0.88;;
67132;SDS011;54052;53.542;49.408;2022-08-02T00:21:03;8.60;;;0.90;;
67132;SDS011;54052;53.542;49.408;2022-08-02T00:23:29;2.65;;;1.33;;
67132;SDS011;54052;53.542;49.408;2022-08-02T00:25:55;4.03;;;0.98;;
67132;SDS011;54052;53.542;49.408;2022-08-02T00:28:23;1.55;;;0.77;;
67132;SDS011;54052;53.542;49.408;2022-08-02T00:30:49;3.30;;;0.80;;
67132;SDS011;54052;53.542;49.408;2022-08-02T00:33:16;6.53;;;0.82;;
67132;SDS011;54052;53.542;49.408;2022-08-02T00:35:42;11.02;;;1.02;;
67132;SDS011;54052;53.542;49.408;2022-08-02T00:38:11;3.22;;;0.95;;
67132;SDS011;54052;53.542;49.408;2022-08-02T00:40:37;4.38;;;0.90;;
67132;SDS011;54052;53.542;49.408;2022-08-02T00:43:08;1.95;;;0.75;;
67132;SDS011;54052;53.542;49.408;2022-08-02T00:45:36;3.22;;;0.80;;
67132;SDS011;54052;53.542;49.408;2022-08-02T00:48:04;5.00;;;1.10;;
67132;SDS011;54052;53.542;49.408;2022-08-02T00:50:32;2.08;;;1.02;;
67132;SDS011;54052;53.542;49.408;2022-08-02T00:52:59;2.28;;;0.77;;
67132;SDS011;54052;53.542;49.408;2022-08-02T00:55:26;3.80;;;1.00;;
67132;SDS011;54052;53.542;49.408;2022-08-02T00:57:53;2.05;;;1.05;;
67132;SDS011;54052;53.542;49.408;2022-08-02T01:00:19;4.97;;;0.80;;
67132;SDS011;54052;53.542;49.408;2022-08-02T01:02:45;5.78;;;1.17;;
67132;SDS011;54052;53.542;49.408;2022-08-02T01:05:12;4.13;;;0.75;;
67132;SDS011;54052;53.542;49.408;2022-08-02T01:07:38;4.30;;;1.10;;
67132;SDS011;54052;53.542;49.408;2022-08-02T01:10:06;5.82;;;2.85;;
67132;SDS011;54052;53.542;49.408;2022-08-02T01:12:32;2.65;;;1.52;;
67132;SDS011;54052;53.542;49.408;2022-08-02T01:15:00;7.13;;;0.90;;
67132;SDS011;54052;53.542;49.408;2022-08-02T01:28:20;3.13;;;1.10;;
67132;SDS011;54052;53.542;49.408;2022-08-02T01:31:43;1.80;;;0.90;;
67132;SDS011;54052;53.542;49.408;2022-08-02T01:34:18;5.90;;;1.45;;
67132;SDS011;54052;53.542;49.408;2022-08-02T01:36:57;2.72;;;1.30;;
67132;SDS011;54052;53.542;49.408;2022-08-02T01:39:29;3.22;;;0.98;;
67132;SDS011;54052;53.542;49.408;2022-08-02T01:41:58;13.90;;;1.42;;
67132;SDS011;54052;53.542;49.408;2022-08-02T01:44:25;2.53;;;0.90;;
67132;SDS011;54052;53.542;49.408;2022-08-02T01:47:00;4.07;;;1.05;;
67132;SDS011;54052;53.542;49.408;2022-08-02T01:49:30;3.42;;;1.00;;
67132;SDS011;54052;53.542;49.408;2022-08-02T01:51:57;5.05;;;1.40;;
67132;SDS011;54052;53.542;49.408;2022-08-02T01:54:44;4.75;;;2.20;;
67132;SDS011;54052;53.542;49.408;2022-08-02T01:57:14;10.35;;;2.20;;
67132;SDS011;54052;53.542;49.408;2022-08-02T01:59:41;7.85;;;4.43;;
67132;SDS011;54052;53.542;49.408;2022-08-02T02:02:08;4.75;;;1.33;;
67132;SDS011;54052;53.542;49.408;2022-08-02T02:04:36;2.78;;;0.90;;
67132;SDS011;54052;53.542;49.408;2022-08-02T02:07:04;5.70;;;1.30;;
67132;SDS011;54052;53.542;49.408;2022-08-02T02:09:34;7.63;;;1.27;;
67132;SDS011;54052;53.542;49.408;2022-08-02T02:12:02;2.50;;;1.00;;
67132;SDS011;54052;53.542;49.408;2022-08-02T02:14:30;4.15;;;1.13;;
67132;SDS011;54052;53.542;49.408;2022-08-02T02:16:59;5.00;;;1.13;;
67132;SDS011;54052;53.542;49.408;2022-08-02T02:19:26;12.60;;;0.90;;
67132;SDS011;54052;53.542;49.408;2022-08-02T02:21:53;9.25;;;1.20;;
67132;SDS011;54052;53.542;49.408;2022-08-02T02:24:21;7.95;;;1.48;;
67132;SDS011;54052;53.542;49.408;2022-08-02T02:26:47;3.55;;;1.30;;
67132;SDS011;54052;53.542;49.408;2022-08-02T02:29:13;4.43;;;1.27;;
67132;SDS011;54052;53.542;49.408;2022-08-02T02:31:43;3.20;;;1.10;;
67132;SDS011;54052;53.542;49.408;2022-08-02T02:34:15;5.25;;;1.60;;
67132;SDS011;54052;53.542;49.408;2022-08-02T02:36:48;4.28;;;1.20;;
67132;SDS011;54052;53.542;49.408;2022-08-02T02:39:17;4.55;;;1.42;;
67132;SDS011;54052;53.542;49.408;2022-08-02T02:41:47;5.25;;;0.98;;
67132;SDS011;54052;53.542;49.408;2022-08-02T02:44:16;2.75;;;1.02;;
67132;SDS011;54052;53.542;49.408;2022-08-02T02:46:46;4.57;;;1.02;;
67132;SDS011;54052;53.542;49.408;2022-08-02T02:49:14;2.40;;;0.98;;
67132;SDS011;54052;53.542;49.408;2022-08-02T02:51:42;3.95;;;1.80;;
67132;SDS011;54052;53.542;49.408;2022-08-02T02:54:10;1.40;;;1.00;;
67132;SDS011;54052;53.542;49.408;2022-08-02T02:56:37;6.57;;;1.20;;
67132;SDS011;54052;53.542;49.408;2022-08-02T02:59:08;5.55;;;0.90;;
67132;SDS011;54052;53.542;49.408;2022-08-02T03:01:35;8.60;;;2.03;;
67132;SDS011;54052;53.542;49.408;2022-08-02T03:04:03;7.20;;;1.00;;
67132;SDS011;54052;53.542;49.408;2022-08-02T03:06:33;6.95;;;1.60;;
67132;SDS011;54052;53.542;49.408;2022-08-02T03:09:01;3.45;;;1.08;;
67132;SDS011;54052;53.542;49.408;2022-08-02T03:11:34;10.40;;;1.38;;
67132;SDS011;54052;53.542;49.408;2022-08-02T03:14:01;2.67;;;0.90;;
67132;SDS011;54052;53.542;49.408;2022-08-02T03:16:29;9.27;;;1.42;;
67132;SDS011;54052;53.542;49.408;2022-08-02T03:18:56;1.63;;;0.98;;
67132;SDS011;54052;53.542;49.408;2022-08-02T03:21:33;1.73;;;0.90;;
67132;SDS011;54052;53.542;49.408;2022-08-02T03:23:59;7.38;;;1.20;;
67132;SDS011;54052;53.542;49.408;2022-08-02T03:26:25;2.10;;;1.27;;
67132;SDS011;54052;53.542;49.408;2022-08-02T03:28:51;4.75;;;1.00;;
67132;SDS011;54052;53.542;49.408;2022-08-02T03:31:17;7.03;;;1.30;;
67132;SDS011;54052;53.542;49.408;2022-08-02T03:33:43;6.38;;;1.15;;
67132;SDS011;54052;53.542;49.408;2022-08-02T03:36:10;6.55;;;0.90;;
67132;SDS011;54052;53.542;49.408;2022-08-02T03:38:39;8.23;;;1.10;;
67132;SDS011;54052;53.542;49.408;2022-08-02T03:41:07;14.75;;;1.27;;
67132;SDS011;54052;53.542;49.408;2022-08-02T03:43:41;2.90;;;0.90;;
67132;SDS011;54052;53.542;49.408;2022-08-02T03:46:09;1.60;;;0.95;;
67132;SDS011;54052;53.542;49.408;2022-08-02T03:48:39;4.32;;;1.05;;
67132;SDS011;54052;53.542;49.408;2022-08-02T03:51:06;7.90;;;1.30;;
67132;SDS011;54052;53.542;49.408;2022-08-02T03:53:33;5.20;;;1.20;;
67132;SDS011;54052;53.542;49.408;2022-08-02T03:56:00;1.73;;;1.10;;
67132;SDS011;54052;53.542;49.408;2022-08-02T03:58:27;3.22;;;1.75;;
67132;SDS011;54052;53.542;49.408;2022-08-02T04:00:54;12.20;;;1.50;;
67132;SDS011;54052;53.542;49.408;2022-08-02T04:03:21;6.38;;;1.13;;
67132;SDS011;54052;53.542;49.408;2022-08-02T04:05:48;9.00;;;1.08;;
67132;SDS011;54052;53.542;49.408;2022-08-02T04:08:14;8.73;;;1.40;;
67132;SDS011;54052;53.542;49.408;2022-08-02T04:10:40;3.60;;;1.40;;
67132;SDS011;54052;53.542;49.408;2022-08-02T04:13:27;2.75;;;1.40;;
67132;SDS011;54052;53.542;49.408;2022-08-02T04:15:56;6.32;;;1.40;;
67132;SDS011;54052;53.542;49.408;2022-08-02T04:18:25;9.25;;;1.17;;
67132;SDS011;54052;53.542;49.408;2022-08-02T04:20:56;4.57;;;1.33;;
67132;SDS011;54052;53.542;49.408;2022-08-02T04:23:25;2.30;;;1.33;;
67132;SDS011;54052;53.542;49.408;2022-08-02T04:25:52;4.50;;;1.23;;
67132;SDS011;54052;53.542;49.408;2022-08-02T04:28:19;3.72;;;1.10;;
67132;SDS011;54052;53.542;49.408;2022-08-02T04:30:46;8.48;;;1.23;;
67132;SDS011;54052;53.542;49.408;2022-08-02T04:33:14;4.68;;;1.58;;
67132;SDS011;54052;53.542;49.408;2022-08-02T04:35:41;8.98;;;1.27;;
67132;SDS011;54052;53.542;49.408;2022-08-02T04:38:08;6.03;;;1.15;;
67132;SDS011;54052;53.542;49.408;2022-08-02T04:40:34;29.45;;;2.22;;
67132;SDS011;54052;53.542;49.408;2022-08-02T04:43:01;11.63;;;1.73;;
67132;SDS011;54052;53.542;49.408;2022-08-02T04:45:27;6.47;;;2.05;;
67132;SDS011;54052;53.542;49.408;2022-08-02T04:47:55;10.90;;;1.83;;
67132;SDS011;54052;53.542;49.408;2022-08-02T04:50:44;6.85;;;1.50;;
67132;SDS011;54052;53.542;49.408;2022-08-02T04:53:10;2.10;;;1.30;;
67132;SDS011;54052;53.542;49.408;2022-08-02T04:55:37;13.88;;;2.05;;
67132;SDS011;54052;53.542;49.408;2022-08-02T04:58:05;4.63;;;2.25;;
67132;SDS011;54052;53.542;49.408;2022-08-02T05:00:31;7.78;;;2.13;;
67132;SDS011;54052;53.542;49.408;2022-08-02T05:02:58;4.72;;;1.48;;
67132;SDS011;54052;53.542;49.408;2022-08-02T05:05:25;6.32;;;1.85;;
67132;SDS011;54052;53.542;49.408;2022-08-02T05:07:51;4.03;;;1.35;;
67132;SDS011;54052;53.542;49.408;2022-08-02T05:10:18;6.82;;;1.98;;
67132;SDS011;54052;53.542;49.408;2022-08-02T05:12:44;3.50;;;1.80;;
67132;SDS011;54052;53.542;49.408;2022-08-02T05:15:11;10.77;;;1.48;;
67132;SDS011;54052;53.542;49.408;2022-08-02T05:17:41;7.68;;;1.90;;
67132;SDS011;54052;53.542;49.408;2022-08-02T05:20:08;8.00;;;2.00;;
67132;SDS011;54052;53.542;49.408;2022-08-02T05:22:34;6.13;;;1.58;;
67132;SDS011;54052;53.542;49.408;2022-08-02T05:25:00;4.65;;;1.83;;
67132;SDS011;54052;53.542;49.408;2022-08-02T05:27:26;6.28;;;2.30;;
67132;SDS011;54052;53.542;49.408;2022-08-02T05:29:57;3.55;;;2.00;;
67132;SDS011;54052;53.542;49.408;2022-08-02T05:32:24;3.00;;;2.15;;
67132;SDS011;54052;53.542;49.408;2022-08-02T05:34:51;5.80;;;2.42;;
67132;SDS011;54052;53.542;49.408;2022-08-02T05:37:17;4.68;;;2.20;;
67132;SDS011;54052;53.542;49.408;2022-08-02T05:39:43;12.40;;;2.38;;
67132;SDS011;54052;53.542;49.408;2022-08-02T05:42:09;13.25;;;2.55;;
67132;SDS011;54052;53.542;49.408;2022-08-02T05:44:41;6.23;;;2.30;;
67132;SDS011;54052;53.542;49.408;2022-08-02T05:47:07;5.72;;;2.50;;
67132;SDS011;54052;53.542;49.408;2022-08-02T05:49:33;7.28;;;2.92;;
67132;SDS011;54052;53.542;49.408;2022-08-02T05:52:06;7.43;;;3.22;;
67132;SDS011;54052;53.542;49.408;2022-08-02T05:55:03;8.93;;;3.00;;
67132;SDS011;54052;53.542;49.408;2022-08-02T06:00:17;6.65;;;3.20;;
67132;SDS011;54052;53.542;49.408;2022-08-02T06:02:49;4.53;;;3.35;;
67132;SDS011;54052;53.542;49.408;2022-08-02T06:05:26;13.00;;;3.50;;
67132;SDS011;54052;53.542;49.408;2022-08-02T06:07:57;5.43;;;3.60;;
67132;SDS011;54052;53.542;49.408;2022-08-02T06:10:23;6.68;;;4.07;;
67132;SDS011;54052;53.542;49.408;2022-08-02T06:15:29;8.18;;;3.42;;
67132;SDS011;54052;53.542;49.408;2022-08-02T06:17:56;4.90;;;3.78;;
67132;SDS011;54052;53.542;49.408;2022-08-02T06:20:23;11.20;;;3.70;;
67132;SDS011;54052;53.542;49.408;2022-08-02T06:22:52;9.82;;;3.80;;
67132;SDS011;54052;53.542;49.408;2022-08-02T06:25:22;5.78;;;4.07;;
67132;SDS011;54052;53.542;49.408;2022-08-02T06:27:49;5.82;;;3.88;;
67132;SDS011;54052;53.542;49.408;2022-08-02T06:30:18;6.82;;;3.90;;
67132;SDS011;54052;53.542;49.408;2022-08-02T06:32:44;13.23;;;4.20;;
67132;SDS011;54052;53.542;49.408;2022-08-02T06:35:10;6.85;;;4.03;;
67132;SDS011;54052;53.542;49.408;2022-08-02T06:37:38;6.57;;;4.10;;
67132;SDS011;54052;53.542;49.408;2022-08-02T06:46:07;8.85;;;4.10;;
67132;SDS011;54052;53.542;49.408;2022-08-02T06:48:33;12.32;;;4.50;;
67132;SDS011;54052;53.542;49.408;2022-08-02T06:51:01;5.72;;;3.88;;
67132;SDS011;54052;53.542;49.408;2022-08-02T06:53:28;8.63;;;4.68;;
67132;SDS011;54052;53.542;49.408;2022-08-02T06:55:54;10.65;;;5.60;;
67132;SDS011;54052;53.542;49.408;2022-08-02T06:58:21;12.82;;;6.47;;
67132;SDS011;54052;53.542;49.408;2022-08-02T07:00:47;16.35;;;5.72;;
67132;SDS011;54052;53.542;49.408;2022-08-02T07:03:18;10.80;;;5.15;;
67132;SDS011;54052;53.542;49.408;2022-08-02T07:05:44;11.77;;;6.18;;
67132;SDS011;54052;53.542;49.408;2022-08-02T07:08:13;11.75;;;5.38;;
67132;SDS011;54052;53.542;49.408;2022-08-02T07:10:40;10.32;;;5.57;;
67132;SDS011;54052;53.542;49.408;2022-08-02T07:13:06;14.27;;;5.85;;
67132;SDS011;54052;53.542;49.408;2022-08-02T07:15:34;8.10;;;5.03;;
67132;SDS011;54052;53.542;49.408;2022-08-02T07:18:02;16.00;;;5.68;;
67132;SDS011;54052;53.542;49.408;2022-08-02T07:20:29;12.05;;;5.65;;
67132;SDS011;54052;53.542;49.408;2022-08-02T07:26:01;12.13;;;6.05;;
67132;SDS011;54052;53.542;49.408;2022-08-02T07:28:29;12.27;;;6.47;;
67132;SDS011;54052;53.542;49.408;2022-08-02T07:39:58;14.27;;;6.57;;
67132;SDS011;54052;53.542;49.408;2022-08-02T07:42:34;9.77;;;5.93;;
67132;SDS011;54052;53.542;49.408;2022-08-02T07:45:00;25.52;;;5.72;;
67132;SDS011;54052;53.542;49.408;2022-08-02T07:47:26;10.90;;;5.70;;
67132;SDS011;54052;53.542;49.408;2022-08-02T07:49:56;9.45;;;5.50;;
67132;SDS011;54052;53.542;49.408;2022-08-02T07:52:51;12.70;;;5.43;;
67132;SDS011;54052;53.542;49.408;2022-08-02T07:55:17;7.95;;;5.53;;
67132;SDS011;54052;53.542;49.408;2022-08-02T07:57:47;7.72;;;4.60;;
67132;SDS011;54052;53.542;49.408;2022-08-02T08:00:19;12.82;;;5.47;;
67132;SDS011;54052;53.542;49.408;2022-08-02T08:05:44;11.60;;;5.45;;
67132;SDS011;54052;53.542;49.408;2022-08-02T08:11:00;10.10;;;5.78;;
67132;SDS011;54052;53.542;49.408;2022-08-02T08:13:28;13.70;;;5.32;;
67132;SDS011;54052;53.542;49.408;2022-08-02T08:15:55;8.73;;;4.70;;
67132;SDS011;54052;53.542;49.408;2022-08-02T08:18:22;8.60;;;5.70;;
67132;SDS011;54052;53.542;49.408;2022-08-02T08:20:49;12.88;;;5.72;;
67132;SDS011;54052;53.542;49.408;2022-08-02T08:23:19;12.05;;;6.10;;
67132;SDS011;54052;53.542;49.408;2022-08-02T08:25:45;10.00;;;5.70;;
67132;SDS011;54052;53.542;49.408;2022-08-02T08:28:14;12.30;;;5.13;;
67132;SDS011;54052;53.542;49.408;2022-08-02T08:33:38;12.63;;;6.35;;
67132;SDS011;54052;53.542;49.408;2022-08-02T08:40:09;10.43;;;5.03;;
67132;SDS011;54052;53.542;49.408;2022-08-02T08:42:37;9.35;;;5.63;;
67132;SDS011;54052;53.542;49.408;2022-08-02T08:45:07;8.43;;;5.53;;
67132;SDS011;54052;53.542;49.408;2022-08-02T08:47:40;9.02;;;5.15;;
67132;SDS011;54052;53.542;49.408;2022-08-02T08:50:11;10.40;;;5.15;;
67132;SDS011;54052;53.542;49.408;2022-08-02T08:52:47;9.93;;;5.90;;
67132;SDS011;54052;53.542;49.408;2022-08-02T08:55:18;7.72;;;5.15;;
67132;SDS011;54052;53.542;49.408;2022-08-02T08:57:49;9.68;;;5.43;;
67132;SDS011;54052;53.542;49.408;2022-08-02T09:00:16;11.75;;;5.22;;
67132;SDS011;54052;53.542;49.408;2022-08-02T09:02:42;12.60;;;5.45;;
67132;SDS011;54052;53.542;49.408;2022-08-02T09:05:11;11.88;;;6.05;;
67132;SDS011;54052;53.542;49.408;2022-08-02T09:07:38;8.60;;;5.03;;
67132;SDS011;54052;53.542;49.408;2022-08-02T09:13:20;7.93;;;4.20;;
67132;SDS011;54052;53.542;49.408;2022-08-02T09:15:53;14.10;;;4.70;;
67132;SDS011;54052;53.542;49.408;2022-08-02T09:18:30;10.48;;;4.20;;
67132;SDS011;54052;53.542;49.408;2022-08-02T09:20:58;7.40;;;4.53;;
67132;SDS011;54052;53.542;49.408;2022-08-02T09:23:36;8.82;;;4.97;;
67132;SDS011;54052;53.542;49.408;2022-08-02T09:26:05;9.48;;;4.47;;
67132;SDS011;54052;53.542;49.408;2022-08-02T09:28:34;18.33;;;5.03;;
67132;SDS011;54052;53.542;49.408;2022-08-02T09:31:11;8.20;;;4.03;;
67132;SDS011;54052;53.542;49.408;2022-08-02T09:33:40;6.72;;;4.22;;
67132;SDS011;54052;53.542;49.408;2022-08-02T09:38:36;7.72;;;4.57;;
67132;SDS011;54052;53.542;49.408;2022-08-02T09:41:04;7.72;;;4.60;;
67132;SDS011;54052;53.542;49.408;2022-08-02T09:43:38;14.65;;;4.93;;
67132;SDS011;54052;53.542;49.408;2022-08-02T09:46:25;8.93;;;4.50;;
67132;SDS011;54052;53.542;49.408;2022-08-02T09:48:54;9.70;;;4.35;;
67132;SDS011;54052;53.542;49.408;2022-08-02T09:51:29;8.30;;;4.70;;
67132;SDS011;54052;53.542;49.408;2022-08-02T09:54:03;12.05;;;4.10;;
67132;SDS011;54052;53.542;49.408;2022-08-02T09:56:39;5.50;;;4.10;;
67132;SDS011;54052;53.542;49.408;2022-08-02T09:59:14;11.27;;;4.80;;
67132;SDS011;54052;53.542;49.408;2022-08-02T10:01:41;17.13;;;3.90;;
67132;SDS011;54052;53.542;49.408;2022-08-02T10:04:10;6.80;;;3.15;;
67132;SDS011;54052;53.542;49.408;2022-08-02T10:06:38;4.50;;;3.15;;
67132;SDS011;54052;53.542;49.408;2022-08-02T10:09:06;8.93;;;4.57;;
67132;SDS011;54052;53.542;49.408;2022-08-02T10:11:33;17.85;;;4.18;;
67132;SDS011;54052;53.542;49.408;2022-08-02T10:14:03;8.98;;;3.97;;
67132;SDS011;54052;53.542;49.408;2022-08-02T10:16:35;10.38;;;4.43;;
67132;SDS011;54052;53.542;49.408;2022-08-02T10:19:02;18.80;;;4.47;;
67132;SDS011;54052;53.542;49.408;2022-08-02T10:21:39;7.45;;;4.13;;
67132;SDS011;54052;53.542;49.408;2022-08-02T10:24:10;4.95;;;3.45;;
67132;SDS011;54052;53.542;49.408;2022-08-02T10:26:39;6.25;;;3.92;;
67132;SDS011;54052;53.542;49.408;2022-08-02T10:29:08;4.18;;;3.28;;
67132;SDS011;54052;53.542;49.408;2022-08-02T10:31:37;9.35;;;3.38;;
67132;SDS011;54052;53.542;49.408;2022-08-02T10:34:07;6.45;;;3.15;;
67132;SDS011;54052;53.542;49.408;2022-08-02T10:36:36;5.20;;;4.13;;
67132;SDS011;54052;53.542;49.408;2022-08-02T10:39:05;7.13;;;4.25;;
67132;SDS011;54052;53.542;49.408;2022-08-02T10:41:45;7.00;;;3.58;;
67132;SDS011;54052;53.542;49.408;2022-08-02T10:44:28;31.67;;;4.35;;
67132;SDS011;54052;53.542;49.408;2022-08-02T10:49:56;9.65;;;3.42;;
67132;SDS011;54052;53.542;49.408;2022-08-02T10:52:24;4.55;;;3.38;;
67132;SDS011;54052;53.542;49.408;2022-08-02T10:57:30;10.63;;;3.95;;
67132;SDS011;54052;53.542;49.408;2022-08-02T11:00:09;7.75;;;3.72;;
67132;SDS011;54052;53.542;49.408;2022-08-02T11:02:46;6.95;;;3.30;;
67132;SDS011;54052;53.542;49.408;2022-08-02T11:05:35;5.68;;;3.22;;
67132;SDS011;54052;53.542;49.408;2022-08-02T11:08:18;9.00;;;3.75;;
67132;SDS011;54052;53.542;49.408;2022-08-02T11:10:50;6.25;;;3.10;;
67132;SDS011;54052;53.542;49.408;2022-08-02T11:13:17;4.85;;;3.05;;
67132;SDS011;54052;53.542;49.408;2022-08-02T11:15:48;5.13;;;3.42;;
67132;SDS011;54052;53.542;49.408;2022-08-02T11:18:16;8.38;;;3.97;;
67132;SDS011;54052;53.542;49.408;2022-08-02T11:20:43;9.98;;;3.90;;
67132;SDS011;54052;53.542;49.408;2022-08-02T11:25:59;6.65;;;3.28;;
67132;SDS011;54052;53.542;49.408;2022-08-02T11:28:25;5.78;;;3.17;;
67132;SDS011;54052;53.542;49.408;2022-08-02T11:30:55;5.68;;;3.30;;
67132;SDS011;54052;53.542;49.408;2022-08-02T11:33:28;7.05;;;2.90;;
67132;SDS011;54052;53.542;49.408;2022-08-02T11:36:05;7.20;;;3.45;;
67132;SDS011;54052;53.542;49.408;2022-08-02T11:38:34;7.70;;;4.03;;
67132;SDS011;54052;53.542;49.408;2022-08-02T11:41:00;8.90;;;3.38;;
67132;SDS011;54052;53.542;49.408;2022-08-02T11:43:28;4.00;;;2.72;;
67132;SDS011;54052;53.542;49.408;2022-08-02T11:46:00;5.38;;;3.20;;
67132;SDS011;54052;53.542;49.408;2022-08-02T11:48:28;4.93;;;3.03;;
67132;SDS011;54052;53.542;49.408;2022-08-02T11:51:07;5.35;;;3.35;;
67132;SDS011;54052;53.542;49.408;2022-08-02T11:53:53;8.77;;;3.60;;
67132;SDS011;54052;53.542;49.408;2022-08-02T11:59:00;10.65;;;3.53;;
67132;SDS011;54052;53.542;49.408;2022-08-02T12:01:31;3.78;;;3.00;;
67132;SDS011;54052;53.542;49.408;2022-08-02T12:04:00;11.38;;;2.92;;
67132;SDS011;54052;53.542;49.408;2022-08-02T12:06:27;8.73;;;3.67;;
67132;SDS011;54052;53.542;49.408;2022-08-02T12:08:59;3.90;;;3.05;;
67132;SDS011;54052;53.542;49.408;2022-08-02T12:11:53;4.75;;;2.75;;
67132;SDS011;54052;53.542;49.408;2022-08-02T12:14:21;4.93;;;3.15;;
67132;SDS011;54052;53.542;49.408;2022-08-02T12:16:52;4.85;;;3.03;;
67132;SDS011;54052;53.542;49.408;2022-08-02T12:19:41;9.20;;;3.20;;
67132;SDS011;54052;53.542;49.408;2022-08-02T12:22:26;8.38;;;4.63;;
67132;SDS011;54052;53.542;49.408;2022-08-02T12:24:57;5.88;;;3.22;;
67132;SDS011;54052;53.542;49.408;2022-08-02T12:27:27;4.82;;;2.85;;
67132;SDS011;54052;53.542;49.408;2022-08-02T12:30:06;4.00;;;2.53;;
67132;SDS011;54052;53.542;49.408;2022-08-02T12:32:36;4.65;;;3.00;;
67132;SDS011;54052;53.542;49.408;2022-08-02T12:37:33;6.47;;;2.75;;
67132;SDS011;54052;53.542;49.408;2022-08-02T12:42:56;6.97;;;3.10;;
67132;SDS011;54052;53.542;49.408;2022-08-02T12:45:52;10.00;;;2.58;;
67132;SDS011;54052;53.542;49.408;2022-08-02T12:48:35;5.38;;;2.78;;
67132;SDS011;54052;53.542;49.408;2022-08-02T12:51:19;5.68;;;2.97;;
67132;SDS011;54052;53.542;49.408;2022-08-02T12:53:45;4.88;;;2.83;;
67132;SDS011;54052;53.542;49.408;2022-08-02T12:56:12;25.33;;;3.53;;
67132;SDS011;54052;53.542;49.408;2022-08-02T12:58:56;7.55;;;3.00;;
67132;SDS011;54052;53.542;49.408;2022-08-02T13:01:24;20.30;;;2.70;;
67132;SDS011;54052;53.542;49.408;2022-08-02T13:03:52;4.85;;;3.15;;
67132;SDS011;54052;53.542;49.408;2022-08-02T13:06:19;15.75;;;3.28;;
67132;SDS011;54052;53.542;49.408;2022-08-02T13:08:46;9.40;;;3.20;;
67132;SDS011;54052;53.542;49.408;2022-08-02T13:11:13;3.60;;;3.03;;
67132;SDS011;54052;53.542;49.408;2022-08-02T13:13:40;2.97;;;2.00;;
67132;SDS011;54052;53.542;49.408;2022-08-02T13:16:06;4.75;;;2.75;;
67132;SDS011;54052;53.542;49.408;2022-08-02T13:18:34;3.38;;;2.33;;
67132;SDS011;54052;53.542;49.408;2022-08-02T13:21:00;7.40;;;3.15;;
67132;SDS011;54052;53.542;49.408;2022-08-02T13:23:29;6.35;;;2.75;;
67132;SDS011;54052;53.542;49.408;2022-08-02T13:25:55;6.68;;;3.35;;
67132;SDS011;54052;53.542;49.408;2022-08-02T13:28:23;5.45;;;2.97;;
67132;SDS011;54052;53.542;49.408;2022-08-02T13:31:35;4.97;;;3.13;;
67132;SDS011;54052;53.542;49.408;2022-08-02T13:33:49;7.32;;;3.40;;
67132;SDS011;54052;53.542;49.408;2022-08-02T13:36:18;5.40;;;3.22;;
67132;SDS011;54052;53.542;49.408;2022-08-02T13:38:44;5.40;;;3.63;;
67132;SDS011;54052;53.542;49.408;2022-08-02T13:41:10;5.32;;;3.03;;
67132;SDS011;54052;53.542;49.408;2022-08-02T13:43:38;7.00;;;3.75;;
67132;SDS011;54052;53.542;49.408;2022-08-02T13:46:05;9.25;;;3.30;;
67132;SDS011;54052;53.542;49.408;2022-08-02T13:48:31;5.82;;;3.65;;
67132;SDS011;54052;53.542;49.408;2022-08-02T13:50:58;8.57;;;3.47;;
67132;SDS011;54052;53.542;49.408;2022-08-02T13:53:25;7.82;;;3.75;;
67132;SDS011;54052;53.542;49.408;2022-08-02T13:55:51;7.43;;;4.57;;
67132;SDS011;54052;53.542;49.408;2022-08-02T13:58:18;12.02;;;3.38;;
67132;SDS011;54052;53.542;49.408;2022-08-02T14:00:44;9.50;;;4.78;;
67132;SDS011;54052;53.542;49.408;2022-08-02T14:03:10;13.52;;;4.28;;
67132;SDS011;54052;53.542;49.408;2022-08-02T14:05:37;10.32;;;4.03;;
67132;SDS011;54052;53.542;49.408;2022-08-02T14:08:05;6.82;;;4.07;;
67132;SDS011;54052;53.542;49.408;2022-08-02T14:10:31;12.02;;;4.18;;
67132;SDS011;54052;53.542;49.408;2022-08-02T14:12:57;8.95;;;4.45;;
67132;SDS011;54052;53.542;49.408;2022-08-02T14:15:23;9.07;;;3.88;;
67132;SDS011;54052;53.542;49.408;2022-08-02T14:17:49;8.20;;;4.00;;
67132;SDS011;54052;53.542;49.408;2022-08-02T14:20:16;7.55;;;3.72;;
67132;SDS011;54052;53.542;49.408;2022-08-02T14:22:43;8.25;;;3.83;;
67132;SDS011;54052;53.542;49.408;2022-08-02T14:25:09;12.35;;;4.18;;
67132;SDS011;54052;53.542;49.408;2022-08-02T14:27:35;7.38;;;3.90;;
67132;SDS011;54052;53.542;49.408;2022-08-02T14:30:01;4.60;;;3.55;;
67132;SDS011;54052;53.542;49.408;2022-08-02T14:32:28;10.52;;;4.00;;
67132;SDS011;54052;53.542;49.408;2022-08-02T14:34:54;5.03;;;3.67;;
67132;SDS011;54052;53.542;49.408;2022-08-02T14:37:20;11.95;;;4.40;;
67132;SDS011;54052;53.542;49.408;2022-08-02T14:39:46;12.07;;;5.22;;
67132;SDS011;54052;53.542;49.408;2022-08-02T14:42:12;7.18;;;4.13;;
67132;SDS011;54052;53.542;49.408;2022-08-02T14:44:39;9.27;;;4.93;;
67132;SDS011;54052;53.542;49.408;2022-08-02T14:47:06;7.68;;;3.78;;
67132;SDS011;54052;53.542;49.408;2022-08-02T14:49:32;7.05;;;3.78;;
67132;SDS011;54052;53.542;49.408;2022-08-02T14:51:58;5.53;;;4.13;;
67132;SDS011;54052;53.542;49.408;2022-08-02T14:54:24;8.43;;;4.10;;
67132;SDS011;54052;53.542;49.408;2022-08-02T14:56:54;7.53;;;4.57;;
67132;SDS011;54052;53.542;49.408;2022-08-02T14:59:21;5.72;;;4.55;;
67132;SDS011;54052;53.542;49.408;2022-08-02T15:01:47;13.23;;;4.22;;
67132;SDS011;54052;53.542;49.408;2022-08-02T15:04:13;9.43;;;4.85;;
67132;SDS011;54052;53.542;49.408;2022-08-02T15:06:39;6.25;;;4.90;;
67132;SDS011;54052;53.542;49.408;2022-08-02T15:09:05;6.85;;;4.85;;
67132;SDS011;54052;53.542;49.408;2022-08-02T15:11:34;11.57;;;5.18;;
67132;SDS011;54052;53.542;49.408;2022-08-02T15:14:04;10.90;;;5.20;;
67132;SDS011;54052;53.542;49.408;2022-08-02T15:16:30;18.40;;;5.53;;
67132;SDS011;54052;53.542;49.408;2022-08-02T15:19:03;21.45;;;5.60;;
67132;SDS011;54052;53.542;49.408;2022-08-02T15:21:30;21.83;;;6.30;;
67132;SDS011;54052;53.542;49.408;2022-08-02T15:24:11;17.20;;;6.22;;
67132;SDS011;54052;53.542;49.408;2022-08-02T15:26:41;14.68;;;6.55;;
67132;SDS011;54052;53.542;49.408;2022-08-02T15:29:07;17.55;;;6.47;;
67132;SDS011;54052;53.542;49.408;2022-08-02T15:31:33;15.82;;;6.43;;
67132;SDS011;54052;53.542;49.408;2022-08-02T15:33:59;22.88;;;6.93;;
67132;SDS011;54052;53.542;49.408;2022-08-02T15:36:26;18.30;;;6.65;;
67132;SDS011;54052;53.542;49.408;2022-08-02T15:38:52;25.42;;;6.90;;
67132;SDS011;54052;53.542;49.408;2022-08-02T15:41:18;14.73;;;7.40;;
67132;SDS011;54052;53.542;49.408;2022-08-02T15:43:44;12.23;;;6.47;;
67132;SDS011;54052;53.542;49.408;2022-08-02T15:46:10;21.38;;;6.65;;
67132;SDS011;54052;53.542;49.408;2022-08-02T15:48:36;10.63;;;7.00;;
67132;SDS011;54052;53.542;49.408;2022-08-02T15:51:04;14.43;;;7.70;;
67132;SDS011;54052;53.542;49.408;2022-08-02T15:53:36;17.27;;;7.28;;